Time;durP1;ratioP1;P1;durP2;ratioP2;P2;SDS_P1;SDS_P2;PMS_P1;PMS_P2;Temp;Humidity;BMP_temperature;BMP_pressure;BME280_temperature;BME280_humidity;BME280_pressure;Samples;Min_cycle;Max_cycle;Signal;HPM_P1;HPM_P2
2021/04/04 00:01:05;;;;;;;4.30;1.70;;;;;;;;;;5013700;28;20385;-72
2021/04/04 00:03:33;;;;;;;4.60;1.80;;;;;;;;;;5013599;28;20373;-72
2021/04/04 00:05:59;;;;;;;2.70;1.80;;;;;;;;;;5013351;28;20873;-72
2021/04/04 00:08:25;;;;;;;3.22;1.67;;;;;;;;;;5033256;28;20414;-72
2021/04/04 00:10:51;;;;;;;1.63;1.52;;;;;;;;;;5032791;28;20383;-72
2021/04/04 00:13:17;;;;;;;3.00;1.55;;;;;;;;;;5032171;28;20378;-72
2021/04/04 00:15:44;;;;;;;2.58;1.90;;;;;;;;;;5013136;28;20381;-73
2021/04/04 00:18:10;;;;;;;2.20;1.55;;;;;;;;;;5013013;28;20439;-73
2021/04/04 00:20:36;;;;;;;4.80;1.77;;;;;;;;;;5013285;28;20477;-72
2021/04/04 00:23:03;;;;;;;2.20;1.70;;;;;;;;;;5012641;28;20445;-73
2021/04/04 00:25:30;;;;;;;3.80;1.77;;;;;;;;;;5013274;28;20460;-71
2021/04/04 00:27:56;;;;;;;1.75;1.35;;;;;;;;;;5012561;28;20419;-71
2021/04/04 00:30:23;;;;;;;1.55;1.38;;;;;;;;;;5012871;28;20388;-71
2021/04/04 00:32:50;;;;;;;1.75;1.40;;;;;;;;;;5012670;28;20375;-73
2021/04/04 00:35:17;;;;;;;2.53;1.70;;;;;;;;;;5013068;28;20381;-72
2021/04/04 00:37:45;;;;;;;2.70;1.30;;;;;;;;;;5012431;28;20427;-71
2021/04/04 00:40:18;;;;;;;2.80;1.60;;;;;;;;;;5012948;28;20392;-73
2021/04/04 00:42:44;;;;;;;2.20;1.40;;;;;;;;;;5012382;28;20383;-74
2021/04/04 00:45:15;;;;;;;2.30;1.30;;;;;;;;;;5012864;28;20377;-73
2021/04/04 00:47:41;;;;;;;1.70;1.50;;;;;;;;;;5012213;28;20465;-73
2021/04/04 00:50:08;;;;;;;3.60;1.80;;;;;;;;;;5012817;28;20902;-72
2021/04/04 00:52:35;;;;;;;2.25;1.63;;;;;;;;;;5012021;28;20376;-72
2021/04/04 00:55:01;;;;;;;2.08;1.88;;;;;;;;;;5011935;28;20375;-72
2021/04/04 00:57:27;;;;;;;4.15;2.20;;;;;;;;;;5012623;28;20377;-72
2021/04/04 00:59:54;;;;;;;4.13;2.22;;;;;;;;;;5011653;28;20373;-72
2021/04/04 01:02:21;;;;;;;3.00;2.15;;;;;;;;;;5012602;28;20374;-71
2021/04/04 01:04:50;;;;;;;2.92;2.30;;;;;;;;;;5011842;28;20385;-72
2021/04/04 01:07:16;;;;;;;3.25;1.70;;;;;;;;;;5023245;28;20418;-72
2021/04/04 01:09:42;;;;;;;3.80;1.88;;;;;;;;;;5031529;28;20437;-73
2021/04/04 01:12:14;;;;;;;3.20;2.03;;;;;;;;;;5032423;28;20389;-72
2021/04/04 01:14:45;;;;;;;3.22;2.00;;;;;;;;;;5019155;28;20403;-72
2021/04/04 01:17:12;;;;;;;2.10;1.52;;;;;;;;;;5012005;28;20389;-72
2021/04/04 01:19:57;;;;;;;1.80;1.50;;;;;;;;;;5011880;28;20546;-72
2021/04/04 01:22:23;;;;;;;2.80;1.65;;;;;;;;;;5012235;28;20446;-73
2021/04/04 01:25:08;;;;;;;3.13;1.80;;;;;;;;;;5011596;28;20373;-72
2021/04/04 01:27:46;;;;;;;2.13;1.58;;;;;;;;;;5012231;28;20454;-73
2021/04/04 01:30:13;;;;;;;2.63;1.52;;;;;;;;;;5012358;28;20468;-72
2021/04/04 01:32:40;;;;;;;1.27;1.10;;;;;;;;;;5011764;28;20381;-73
2021/04/04 01:35:08;;;;;;;2.83;1.92;;;;;;;;;;5011030;28;20838;-73
2021/04/04 01:37:34;;;;;;;3.70;2.10;;;;;;;;;;5011863;28;20412;-72
2021/04/04 01:40:01;;;;;;;2.25;1.77;;;;;;;;;;5010953;28;20385;-73
2021/04/04 01:42:28;;;;;;;2.30;1.58;;;3.60;99.90;;;;;;5011907;28;20373;-73
2021/04/04 01:44:55;;;;;;;2.40;1.40;;;;;;;;;;5011523;28;20424;-72
2021/04/04 01:47:21;;;;;;;3.33;2.10;;;3.50;99.90;;;;;;5011691;28;20459;-71
2021/04/04 01:49:51;;;;;;;2.25;1.75;;;2.80;99.90;;;;;;5011091;28;20396;-73
2021/04/04 01:52:17;;;;;;;2.33;1.70;;;3.10;99.90;;;;;;5011831;28;20433;-73
2021/04/04 01:54:44;;;;;;;2.10;1.88;;;3.10;99.90;;;;;;5011551;28;20389;-72
2021/04/04 01:57:11;;;;;;;3.50;2.00;;;3.40;99.90;;;;;;5011700;28;20412;-73
2021/04/04 01:59:37;;;;;;;2.70;1.60;;;3.50;99.90;;;;;;5011267;28;20757;-72
2021/04/04 02:02:05;;;;;;;7.05;1.90;;;3.20;99.90;;;;;;5010975;28;20404;-73
2021/04/04 02:04:33;;;;;;;1.65;1.55;;;2.90;99.90;;;;;;5010427;28;20412;-74
2021/04/04 02:06:59;;;;;;;2.73;2.00;;;3.40;99.90;;;;;;5019277;28;20415;-73
2021/04/04 02:09:27;;;;;;;2.50;1.83;;;3.00;99.90;;;;;;5031112;28;20410;-73
2021/04/04 02:11:54;;;;;;;2.05;1.40;;;3.30;99.90;;;;;;5030561;28;20426;-73
2021/04/04 02:14:22;;;;;;;4.53;1.60;;;3.30;99.90;;;;;;5021208;28;20492;-72
2021/04/04 02:16:52;;;;;;;3.05;1.55;;;3.30;99.90;;;;;;5010563;28;20392;-73
2021/04/04 02:19:23;;;;;;;3.13;1.83;;;3.10;99.90;;;;;;5011285;28;20412;-72
2021/04/04 02:21:52;;;;;;;2.78;2.00;;;3.20;99.90;;;;;;5010796;28;20423;-73
2021/04/04 02:24:19;;;;;;;1.60;1.50;;;3.10;99.90;;;;;;5011216;28;20455;-73
2021/04/04 02:26:46;;;;;;;3.30;1.90;;;;;;;;;;5010866;28;20455;-75
2021/04/04 02:29:12;;;;;;;2.05;1.85;;;3.20;99.90;;;;;;5011164;28;20406;-72
2021/04/04 02:31:43;;;;;;;2.60;2.00;;;3.40;99.90;;;;;;5010746;28;20944;-72
2021/04/04 02:34:18;;;;;;;3.90;1.90;;;2.30;99.90;;;;;;5010602;28;20760;-73
2021/04/04 02:36:44;;;;;;;4.47;2.00;;;3.00;99.90;;;;;;5011070;28;20397;-72
2021/04/04 02:39:30;;;;;;;2.13;1.80;;;2.90;99.90;;;;;;5010444;28;20734;-73
2021/04/04 02:41:58;;;;;;;3.33;2.10;;;2.80;99.90;;;;;;5010600;28;20393;-72
2021/04/04 02:44:28;;;;;;;2.78;2.10;;;3.00;99.90;;;;;;5011019;28;20729;-72
2021/04/04 02:47:02;;;;;;;3.20;1.90;;;2.80;99.90;;;;;;5010198;28;20475;-73
2021/04/04 02:49:33;;;;;;;2.60;1.33;;;2.70;99.90;;;;;;5011146;28;20427;-74
2021/04/04 02:52:03;;;;;;;3.40;1.70;;;2.80;99.90;;;;;;5010371;28;20385;-73
2021/04/04 02:54:31;;;;;;;4.32;1.88;;;2.80;99.90;;;;;;5010976;28;20385;-72
2021/04/04 02:56:58;;;;;;;2.50;2.05;;;2.50;99.90;;;;;;5010217;28;20444;-74
2021/04/04 02:59:46;;;;;;;2.88;1.90;;;2.60;99.90;;;;;;5011235;28;20389;-73
2021/04/04 03:02:15;;;;;;;2.50;1.67;;;2.60;99.90;;;;;;5009243;28;20873;-72
2021/04/04 03:04:43;;;;;;;2.80;1.48;;;2.50;99.90;;;;;;5010936;28;20393;-73
2021/04/04 03:07:14;;;;;;;4.47;2.00;;;2.90;99.90;;;;;;5020224;28;20494;-73
2021/04/04 03:09:44;;;;;;;2.10;1.70;;;2.80;99.90;;;;;;5030714;28;20755;-71
2021/04/04 03:12:11;;;;;;;3.30;2.00;;;3.10;99.90;;;;;;5029833;28;20408;-72
2021/04/04 03:14:38;;;;;;;3.17;1.73;;;3.10;99.90;;;;;;5017966;28;20388;-72
2021/04/04 03:17:05;;;;;;;3.70;2.47;;;;;;;;;;5012714;28;20415;-71
2021/04/04 03:19:33;;;;;;;3.05;1.60;;;2.80;99.90;;;;;;5014512;28;20829;-72
2021/04/04 03:22:01;;;;;;;3.30;2.08;;;2.70;99.90;;;;;;5013575;28;20871;-73
2021/04/04 03:24:27;;;;;;;2.50;1.70;;;;;;;;;;5014645;28;20393;-72
2021/04/04 03:26:54;;;;;;;3.17;1.83;;;;;;;;;;5013267;28;20458;-74
2021/04/04 03:29:20;;;;;;;3.08;1.77;;;;;;;;;;5014233;28;20384;-73
2021/04/04 03:31:47;;;;;;;2.13;1.80;;;2.40;99.90;;;;;;5014168;28;20373;-73
2021/04/04 03:34:13;;;;;;;3.30;1.90;;;2.70;99.90;;;;;;5013427;28;20776;-72
2021/04/04 03:36:40;;;;;;;2.22;2.03;;;3.00;99.90;;;;;;5014537;28;20400;-73
2021/04/04 03:39:06;;;;;;;2.92;2.25;;;2.70;99.90;;;;;;5013502;28;20907;-73
2021/04/04 03:41:34;;;;;;;2.92;2.10;;;2.60;99.90;;;;;;5013750;28;20415;-73
2021/04/04 03:44:01;;;;;;;2.15;1.95;;;2.40;99.90;;;;;;5013175;28;20376;-73
2021/04/04 03:46:30;;;;;;;3.15;2.00;;;2.60;99.90;;;;;;5013760;28;20906;-72
2021/04/04 03:48:57;;;;;;;3.00;2.08;;;2.30;99.90;;;;;;5013104;28;20773;-73
2021/04/04 03:51:26;;;;;;;3.63;2.20;;;2.60;99.90;;;;;;5013907;28;20431;-73
2021/04/04 03:53:54;;;;;;;2.30;1.63;;;2.30;99.90;;;;;;5013242;28;20793;-73
2021/04/04 03:56:39;;;;;;;2.22;1.80;;;2.70;99.90;;;;;;5013980;28;20396;-72
2021/04/04 03:59:10;;;;;;;2.15;1.77;;;2.70;99.90;;;;;;5012946;28;20389;-72
2021/04/04 04:01:40;;;;;;;4.82;1.92;;;2.60;99.90;;;;;;5013753;28;20385;-72
2021/04/04 04:04:08;;;;;;;2.50;1.75;;;2.70;99.90;;;;;;5013567;28;20468;-72
2021/04/04 04:06:35;;;;;;;3.40;1.90;;;2.60;99.90;;;;;;5018832;28;20423;-72
2021/04/04 04:09:05;;;;;;;3.10;2.20;;;2.60;99.90;;;;;;5032967;28;20383;-73
2021/04/04 04:11:32;;;;;;;5.05;1.63;;;2.50;99.90;;;;;;5033816;28;20407;-71
2021/04/04 04:14:01;;;;;;;3.38;2.30;;;2.40;99.90;;;;;;5025918;28;20896;-71
2021/04/04 04:16:28;;;;;;;2.65;2.28;;;3.40;99.90;;;;;;5013385;28;20397;-71
2021/04/04 04:18:55;;;;;;;2.20;2.00;;;2.50;99.90;;;;;;5012915;28;20878;-72
2021/04/04 04:21:21;;;;;;;3.95;2.00;;;;;;;;;;5013615;28;20932;-72
2021/04/04 04:23:48;;;;;;;4.43;2.63;;;2.10;99.90;;;;;;5012145;28;20411;-71
2021/04/04 04:26:15;;;;;;;3.22;2.25;;;;;;;;;;5012892;28;20389;-73
2021/04/04 04:28:42;;;;;;;3.53;2.30;;;2.40;99.90;;;;;;5012523;28;20887;-74
2021/04/04 04:31:11;;;;;;;2.40;1.77;;;2.30;99.90;;;;;;5013192;28;20466;-73
2021/04/04 04:33:40;;;;;;;2.35;1.98;;;;;;;;;;4996278;28;20866;-73
2021/04/04 04:36:06;;;;;;;2.00;1.90;;;2.40;99.90;;;;;;5012897;28;20404;-73
2021/04/04 04:38:32;;;;;;;3.15;2.08;;;2.00;99.90;;;;;;5013209;28;20466;-73
2021/04/04 04:40:59;;;;;;;6.33;1.90;;;2.20;99.90;;;;;;5011542;28;20389;-73
2021/04/04 04:43:25;;;;;;;2.45;2.03;;;1.80;99.90;;;;;;5013352;28;20860;-73
2021/04/04 04:45:52;;;;;;;3.53;2.20;;;2.00;99.90;;;;;;5013077;28;20386;-73
2021/04/04 04:48:19;;;;;;;4.15;1.95;;;2.20;99.90;;;;;;5012631;28;20425;-73
2021/04/04 04:50:45;;;;;;;2.63;2.15;;;1.90;99.90;;;;;;5012892;28;20877;-73
2021/04/04 04:53:11;;;;;;;3.13;2.45;;;2.00;99.90;;;;;;5012553;28;20420;-73
2021/04/04 04:55:40;;;;;;;3.63;2.47;;;1.90;99.90;;;;;;5013200;28;20411;-73
2021/04/04 04:58:08;;;;;;;3.08;2.20;;;1.80;99.90;;;;;;5012387;28;20718;-73
2021/04/04 05:00:35;;;;;;;2.92;2.30;;;1.80;99.90;;;;;;4995478;28;20397;-73
2021/04/04 05:03:01;;;;;;;3.83;2.33;;;1.80;99.90;;;;;;5012739;28;20421;-73
2021/04/04 05:05:27;;;;;;;3.58;2.70;;;1.80;99.90;;;;;;5012941;28;20427;-73
2021/04/04 05:07:54;;;;;;;3.40;3.10;;;2.00;99.90;;;;;;5029132;28;20455;-73
2021/04/04 05:10:22;;;;;;;6.88;3.10;;;1.30;99.90;;;;;;5032066;28;20383;-73
2021/04/04 05:12:54;;;;;;;3.78;3.00;;;1.70;99.90;;;;;;5032619;28;20387;-73
2021/04/04 05:15:22;;;;;;;4.13;3.30;;;1.50;99.90;;;;;;4996290;28;20942;-71
2021/04/04 05:17:49;;;;;;;4.60;2.60;;;1.60;99.90;;;;;;5012810;28;20404;-72
2021/04/04 05:20:17;;;;;;;4.35;3.00;;;1.60;99.90;;;;;;5012140;28;20395;-73
2021/04/04 05:22:44;;;;;;;6.07;3.05;;;1.70;99.90;;;;;;5012607;28;20496;-72
2021/04/04 05:25:10;;;;;;;5.68;3.28;;;1.70;99.90;;;;;;5012048;28;20447;-72
2021/04/04 05:27:37;;;;;;;3.03;2.72;;;;;;;;;;5012423;28;20423;-72
2021/04/04 05:30:12;;;;;;;4.43;2.97;;;1.90;99.90;;;;;;5012012;28;20381;-70
2021/04/04 05:32:45;;;;;;;3.92;2.75;;;1.90;99.90;;;;;;5012448;28;20389;-71
2021/04/04 05:35:19;;;;;;;4.85;2.88;;;1.70;99.90;;;;;;5011617;28;20873;-71
2021/04/04 05:37:46;;;;;;;3.50;2.80;;;1.80;99.90;;;;;;5012349;28;20389;-73
2021/04/04 05:40:23;;;;;;;3.33;2.70;;;1.80;99.90;;;;;;5011548;28;20381;-73
2021/04/04 05:42:55;;;;;;;6.22;2.85;;;1.80;99.90;;;;;;5011997;28;20389;-73
2021/04/04 05:45:32;;;;;;;4.03;3.38;;;1.80;99.90;;;;;;5011497;28;20964;-72
2021/04/04 05:48:21;;;;;;;4.20;2.78;;;1.90;99.90;;;;;;5011722;28;20768;-74
2021/04/04 05:51:09;;;;;;;4.00;2.40;;;2.00;99.90;;;;;;5012589;28;20523;-72
2021/04/04 05:54:16;;;;;;;3.15;2.40;;;2.20;99.90;;;;;;5012107;28;20404;-73
2021/04/04 05:56:50;;;;;;;4.38;2.38;;;2.10;99.90;;;;;;4985125;28;20401;-75
2021/04/04 05:59:45;;;;;;;3.38;2.50;;;2.20;99.90;;;;;;5011543;28;20400;-73
2021/04/04 06:02:28;;;;;;;2.17;1.97;;;2.30;99.90;;;;;;5011503;28;20436;-73
2021/04/04 06:05:21;;;;;;;3.50;2.00;;;2.30;99.90;;;;;;5012109;28;20397;-73
2021/04/04 06:08:05;;;;;;;2.67;2.00;;;2.50;99.90;;;;;;4974540;28;20930;-73
2021/04/04 06:11:00;;;;;;;4.80;2.45;;;2.30;99.90;;;;;;5010734;28;21431;-72
2021/04/04 06:13:44;;;;;;;3.97;2.47;;;2.50;99.90;;;;;;5012092;28;20397;-72
2021/04/04 06:16:20;;;;;;;4.30;1.92;;;2.70;99.90;;;;;;5011555;28;20389;-72
2021/04/04 06:19:09;;;;;;;2.67;2.10;;;3.00;99.90;;;;;;5011634;28;20412;-73
2021/04/04 06:21:44;;;;;;;3.90;2.30;;;3.20;99.90;;;;;;5027273;28;20726;-72
2021/04/04 06:24:21;;;;;;;2.97;2.30;;;3.20;99.90;;;;;;5011236;28;20403;-73
2021/04/04 06:27:01;;;;;;;3.50;2.45;;;3.20;99.90;;;;;;5010560;28;20423;-72
2021/04/04 06:29:30;;;;;;;3.13;2.10;;;;;;;;;;5011741;28;20392;-72
2021/04/04 06:32:07;;;;;;;4.82;2.60;;;3.50;99.90;;;;;;5011601;28;20388;-72
2021/04/04 06:34:36;;;;;;;3.30;2.60;;;3.50;99.90;;;;;;5011745;28;20423;-72
2021/04/04 06:37:32;;;;;;;3.05;2.53;;;3.70;99.90;;;;;;5010960;28;20403;-72
2021/04/04 06:40:22;;;;;;;2.45;2.13;;;3.80;99.90;;;;;;5011309;28;20434;-72
2021/04/04 06:42:56;;;;;;;4.28;2.70;;;4.00;99.90;;;;;;5011276;28;20412;-71
2021/04/04 06:45:45;;;;;;;3.58;2.40;;;4.10;99.90;;;;;;5010547;28;20385;-72
2021/04/04 06:48:34;;;;;;;5.07;2.15;;;4.40;99.90;;;;;;5010277;28;20449;-72
2021/04/04 06:51:42;;;;;;;4.28;2.40;;;4.40;99.90;;;;;;5004567;28;20420;-73
2021/04/04 06:54:11;;;;;;;3.33;2.40;;;;;;;;;;4994169;28;20434;-72
2021/04/04 06:57:06;;;;;;;4.20;2.63;;;4.70;99.90;;;;;;5015417;28;20427;-72
2021/04/04 06:59:54;;;;;;;3.80;2.60;;;4.60;99.90;;;;;;4962023;28;20405;-72
2021/04/04 07:02:23;;;;;;;5.53;2.90;;;4.80;99.90;;;;;;5014421;28;20467;-72
2021/04/04 07:04:55;;;;;;;2.10;1.90;;;4.00;99.90;;;;;;5014858;28;20907;-71
2021/04/04 07:07:52;;;;;;;3.65;2.50;;;4.90;99.90;;;;;;5014160;28;20508;-73
2021/04/04 07:10:36;;;;;;;3.00;2.20;;;5.10;99.90;;;;;;5014297;28;20383;-73
2021/04/04 07:13:17;;;;;;;3.05;2.00;;;5.30;99.90;;;;;;5014830;28;20408;-76
2021/04/04 07:16:02;;;;;;;8.45;2.45;;;5.50;99.90;;;;;;4995507;28;20390;-73
2021/04/04 07:19:05;;;;;;;6.50;2.58;;;5.80;99.90;;;;;;4995495;28;20414;-74
2021/04/04 07:21:52;;;;;;;3.35;2.42;;;5.70;99.90;;;;;;5010253;28;20509;-73
2021/04/04 07:24:39;;;;;;;4.40;2.33;;;6.20;99.90;;;;;;4994638;28;20382;-73
2021/04/04 07:27:14;;;;;;;5.13;2.55;;;6.30;99.90;;;;;;4994348;28;20576;-74
2021/04/04 07:29:46;;;;;;;4.50;2.53;;;;;;;;;;4994825;28;20418;-73
2021/04/04 07:32:27;;;;;;;2.45;2.25;;;6.40;99.90;;;;;;5009503;28;20751;-74
2021/04/04 07:35:07;;;;;;;3.85;2.35;;;6.50;99.90;;;;;;4994978;28;20382;-73
2021/04/04 07:38:08;;;;;;;2.38;2.17;;;6.90;99.90;;;;;;4994746;28;20394;-73
2021/04/04 07:41:03;;;;;;;2.15;1.95;;;;;;;;;;4994719;28;20393;-72
2021/04/04 07:43:53;;;;;;;1.60;1.50;;;7.40;99.90;;;;;;4990729;28;20382;-73
2021/04/04 07:46:57;;;;;;;3.15;1.48;;;7.60;99.80;;;;;;4994198;28;20379;-73
2021/04/04 07:49:50;;;;;;;4.85;1.73;;;7.50;99.90;;;;;;4994118;28;20501;-74
2021/04/04 07:52:33;;;;;;;3.60;1.50;;;8.00;95.20;;;;;;4994082;28;20890;-72
2021/04/04 07:55:08;;;;;;;3.00;1.60;;;7.80;94.20;;;;;;4994899;28;20398;-71
2021/04/04 07:57:43;;;;;;;4.10;1.73;;;8.20;96.60;;;;;;4994242;28;20615;-71
2021/04/04 08:00:10;;;;;;;2.10;1.60;;;8.10;94.70;;;;;;4993947;28;20445;-72
2021/04/04 08:03:06;;;;;;;3.15;1.73;;;7.90;97.00;;;;;;4993433;28;20390;-72
2021/04/04 08:05:36;;;;;;;3.83;1.80;;;7.80;96.40;;;;;;4994393;28;20867;-71
2021/04/04 08:08:08;;;;;;;3.05;1.70;;;7.70;99.90;;;;;;5029394;28;20796;-71
2021/04/04 08:10:36;;;;;;;4.57;1.85;;;7.70;99.90;;;;;;5033680;28;20388;-72
2021/04/04 08:13:06;;;;;;;2.92;1.75;;;7.80;99.90;;;;;;5033641;28;20914;-72
2021/04/04 08:15:51;;;;;;;2.08;1.73;;;8.10;97.90;;;;;;5033422;28;20407;-72
2021/04/04 08:18:17;;;;;;;2.85;1.73;;;8.30;99.90;;;;;;5032541;28;20431;-74
2021/04/04 08:20:47;;;;;;;2.50;2.00;;;8.20;98.80;;;;;;5033452;28;20423;-71
2021/04/04 08:23:34;;;;;;;4.38;2.00;;;8.30;99.90;;;;;;5032883;28;20397;-73
2021/04/04 08:26:10;;;;;;;2.50;1.80;;;7.70;99.00;;;;;;5033471;28;20883;-72
2021/04/04 08:29:04;;;;;;;2.65;2.20;;;8.50;97.80;;;;;;5033380;28;20419;-73
2021/04/04 08:31:38;;;;;;;4.93;2.45;;;8.30;99.70;;;;;;5032721;28;20893;-73
2021/04/04 08:34:12;;;;;;;3.33;2.27;;;8.10;99.90;;;;;;5033216;28;20391;-73
2021/04/04 08:36:42;;;;;;;5.77;2.73;;;8.10;99.60;;;;;;5033263;28;20384;-74
2021/04/04 08:39:10;;;;;;;4.82;2.50;;;8.50;99.90;;;;;;5032469;28;20423;-74
2021/04/04 08:41:37;;;;;;;4.47;2.53;;;8.20;99.90;;;;;;5033048;28;20469;-71
2021/04/04 08:44:15;;;;;;;2.97;2.40;;;8.50;99.70;;;;;;5032637;28;20422;-72
2021/04/04 08:47:26;;;;;;;5.70;2.92;;;8.40;99.20;;;;;;5032949;28;20384;-73
2021/04/04 08:49:53;;;;;;;5.00;2.50;;;8.50;97.20;;;;;;4998986;28;20838;-73
2021/04/04 08:52:26;;;;;;;2.70;2.03;;;8.70;98.80;;;;;;5032305;28;20446;-73
2021/04/04 08:54:54;;;;;;;3.45;2.15;;;8.60;98.70;;;;;;5032796;28;20379;-73
2021/04/04 08:57:29;;;;;;;4.15;2.03;;;8.50;99.90;;;;;;5014312;28;20874;-73
2021/04/04 08:59:55;;;;;;;3.70;2.08;;;9.00;97.50;;;;;;5032695;28;20402;-72
2021/04/04 09:02:21;;;;;;;3.42;1.95;;;9.10;99.90;;;;;;5032022;28;20376;-73
2021/04/04 09:04:48;;;;;;;3.67;1.85;;;8.80;96.50;;;;;;5032449;28;20387;-72
2021/04/04 09:07:20;;;;;;;2.50;1.60;;;9.10;96.20;;;;;;5031568;28;20550;-73
2021/04/04 09:09:50;;;;;;;2.70;1.70;;;8.70;95.80;;;;;;5032024;28;20383;-73
2021/04/04 09:12:16;;;;;;;3.13;1.75;;;8.90;95.90;;;;;;5031811;28;20379;-73
2021/04/04 09:14:43;;;;;;;2.10;1.70;;;9.30;98.30;;;;;;5019244;28;20377;-72
2021/04/04 09:17:15;;;;;;;2.63;2.20;;;9.40;97.00;;;;;;5012391;28;20413;-72
2021/04/04 09:19:44;;;;;;;3.90;1.85;;;9.30;95.30;;;;;;4995019;28;20451;-72
2021/04/04 09:22:19;;;;;;;5.95;2.10;;;9.30;95.20;;;;;;5012388;28;20472;-73
2021/04/04 09:24:50;;;;;;;2.38;1.80;;;;;;;;;;5012473;28;20428;-73
2021/04/04 09:27:18;;;;;;;2.93;2.13;;;9.70;95.10;;;;;;5011841;28;20544;-73
2021/04/04 09:29:51;;;;;;;3.38;2.20;;;9.60;94.30;;;;;;5012047;28;20888;-73
2021/04/04 09:32:35;;;;;;;4.00;1.63;;;10.00;93.50;;;;;;5011724;28;20468;-73
2021/04/04 09:35:13;;;;;;;2.13;1.60;;;10.20;93.20;;;;;;5012351;28;20384;-72
2021/04/04 09:37:39;;;;;;;3.85;1.90;;;9.70;91.50;;;;;;5012185;28;20415;-71
2021/04/04 09:40:06;;;;;;;1.70;1.60;;;10.30;91.50;;;;;;5011976;28;20376;-72
2021/04/04 09:42:32;;;;;;;4.07;2.00;;;10.30;91.50;;;;;;5010773;28;20733;-73
2021/04/04 09:45:15;;;;;;;2.67;2.00;;;10.30;91.20;;;;;;5011843;28;20380;-73
2021/04/04 09:47:42;;;;;;;3.63;1.90;;;10.20;91.60;;;;;;5011967;28;20464;-72
2021/04/04 09:50:29;;;;;;;4.20;1.73;;;10.00;90.70;;;;;;5011731;28;20420;-73
2021/04/04 09:52:56;;;;;;;2.27;1.90;;;10.60;91.10;;;;;;4994504;28;20894;-72
2021/04/04 09:55:24;;;;;;;3.10;1.60;;;10.00;91.20;;;;;;5011211;28;20385;-73
2021/04/04 09:57:55;;;;;;;1.35;1.25;;;10.40;90.60;;;;;;5011729;28;20419;-72
2021/04/04 10:00:45;;;;;;;3.50;1.83;;;10.20;90.30;;;;;;5011171;28;20388;-73
2021/04/04 10:03:16;;;;;;;3.95;1.88;;;11.00;86.40;;;;;;5011967;28;20381;-72
2021/04/04 10:05:44;;;;;;;3.78;2.10;;;10.60;91.00;;;;;;5011675;28;20471;-73
2021/04/04 10:08:22;;;;;;;2.50;1.80;;;10.50;90.60;;;;;;5030522;28;20423;-72
2021/04/04 10:10:50;;;;;;;3.38;2.17;;;10.60;89.50;;;;;;5031246;28;20429;-73
2021/04/04 10:13:17;;;;;;;5.53;1.83;;;11.10;88.50;;;;;;5029702;28;20382;-72
2021/04/04 10:15:47;;;;;;;3.85;1.80;;;10.70;90.80;;;;;;5011548;28;20466;-72
2021/04/04 10:18:14;;;;;;;4.60;2.00;;;11.30;84.30;;;;;;5011970;28;20871;-72
2021/04/04 10:20:46;;;;;;;3.22;1.65;;;10.80;90.00;;;;;;5011580;28;20393;-71
2021/04/04 10:23:13;;;;;;;2.67;1.42;;;11.20;83.20;;;;;;5011523;28;20873;-73
2021/04/04 10:26:02;;;;;;;2.40;1.70;;;11.30;91.10;;;;;;5010644;28;20393;-73
2021/04/04 10:28:48;;;;;;;2.33;1.77;;;11.40;86.50;;;;;;5010865;28;20463;-72
2021/04/04 10:31:16;;;;;;;3.40;1.50;;;11.30;86.10;;;;;;5010959;28;20389;-75
2021/04/04 10:33:41;;;;;;;2.10;1.90;;;10.70;91.10;;;;;;5011752;28;20400;-72
2021/04/04 10:36:24;;;;;;;1.80;1.70;;;11.00;88.30;;;;;;5011628;28;20385;-71
2021/04/04 10:38:50;;;;;;;4.60;2.00;;;11.00;93.20;;;;;;5011280;28;20438;-72
2021/04/04 10:41:34;;;;;;;3.28;1.90;;;11.10;86.90;;;;;;5010541;28;20475;-71
2021/04/04 10:44:00;;;;;;;4.35;2.00;;;11.30;85.30;;;;;;5011523;28;20427;-72
2021/04/04 10:46:31;;;;;;;2.10;1.60;;;11.10;83.50;;;;;;5010653;28;20381;-72
2021/04/04 10:48:59;;;;;;;4.10;1.80;;;11.60;78.40;;;;;;5011481;28;20417;-72
2021/04/04 10:51:25;;;;;;;2.27;1.63;;;10.70;81.60;;;;;;5010714;28;20465;-71
2021/04/04 10:53:51;;;;;;;4.20;1.70;;;11.80;82.80;;;;;;5011040;28;20853;-72
2021/04/04 10:56:17;;;;;;;3.60;2.20;;;11.70;91.40;;;;;;5010582;28;20380;-73
2021/04/04 10:58:45;;;;;;;4.03;2.00;;;11.60;82.70;;;;;;5011180;28;20389;-73
2021/04/04 11:01:12;;;;;;;1.85;1.73;;;12.50;84.00;;;;;;5011028;28;20389;-73
2021/04/04 11:03:40;;;;;;;3.40;2.20;;;12.20;82.10;;;;;;5010578;28;20468;-72
2021/04/04 11:06:06;;;;;;;2.87;2.10;;;11.90;90.60;;;;;;5012497;28;20416;-72
2021/04/04 11:08:32;;;;;;;2.25;1.55;;;12.00;80.10;;;;;;5030302;28;20500;-71
2021/04/04 11:11:02;;;;;;;2.90;1.70;;;12.70;89.10;;;;;;5030837;28;20453;-72
2021/04/04 11:13:28;;;;;;;3.05;1.60;;;12.70;78.90;;;;;;5027623;28;20398;-72
2021/04/04 11:16:05;;;;;;;3.00;1.80;;;12.40;78.30;;;;;;5010819;28;20385;-71
2021/04/04 11:18:44;;;;;;;1.70;1.45;;;12.40;77.40;;;;;;5010227;28;20484;-73
2021/04/04 11:21:17;;;;;;;2.35;1.52;;;12.40;78.00;;;;;;5011036;28;20388;-73
2021/04/04 11:23:44;;;;;;;3.90;1.50;;;12.90;86.50;;;;;;5011339;28;20740;-73
2021/04/04 11:26:36;;;;;;;4.28;1.77;;;13.00;76.80;;;;;;5010915;28;20469;-73
2021/04/04 11:29:13;;;;;;;2.50;1.60;;;12.90;70.00;;;;;;4994225;28;20425;-73
2021/04/04 11:31:40;;;;;;;3.97;1.77;;;13.90;81.50;;;;;;5010373;28;20401;-73
2021/04/04 11:34:27;;;;;;;1.92;1.60;;;14.60;77.80;;;;;;5010687;28;20846;-73
2021/04/04 11:36:53;;;;;;;3.60;1.77;;;14.80;83.70;;;;;;5011726;28;20396;-73
2021/04/04 11:39:20;;;;;;;2.00;1.50;;;15.30;66.90;;;;;;5013987;28;20381;-73
2021/04/04 11:41:54;;;;;;;3.50;1.60;;;15.50;72.30;;;;;;5014625;28;20385;-73
2021/04/04 11:44:30;;;;;;;1.70;1.40;;;16.30;73.90;;;;;;5013623;28;20873;-73
2021/04/04 11:47:01;;;;;;;2.05;1.70;;;15.30;64.60;;;;;;5014021;28;20416;-72
2021/04/04 11:49:47;;;;;;;2.95;1.73;;;16.10;66.30;;;;;;5013751;28;20395;-73
2021/04/04 11:52:15;;;;;;;3.70;1.45;;;16.20;63.90;;;;;;5014493;28;20416;-72
2021/04/04 11:54:41;;;;;;;3.40;1.60;;;15.60;57.80;;;;;;5013370;28;20404;-72
2021/04/04 11:57:07;;;;;;;1.77;1.30;;;15.80;64.00;;;;;;5014043;28;20388;-72
2021/04/04 11:59:34;;;;;;;3.50;1.70;;;16.00;66.80;;;;;;5013543;28;20511;-72
2021/04/04 12:02:00;;;;;;;2.60;1.60;;;15.80;65.60;;;;;;5013996;28;20393;-72
2021/04/04 12:04:44;;;;;;;2.60;1.50;;;16.20;62.70;;;;;;5013262;28;20392;-73
2021/04/04 12:07:14;;;;;;;1.90;1.65;;;16.10;63.20;;;;;;5023790;28;20418;-72
2021/04/04 12:09:43;;;;;;;2.80;1.88;;;16.40;63.20;;;;;;5033202;28;20762;-72
2021/04/04 12:12:09;;;;;;;4.73;2.00;;;17.20;63.30;;;;;;5033572;28;20406;-73
2021/04/04 12:15:00;;;;;;;3.50;1.80;;;16.50;68.90;;;;;;5020792;28;20460;-73
2021/04/04 12:17:29;;;;;;;1.77;1.55;;;17.50;64.10;;;;;;5012775;28;20412;-72
2021/04/04 12:19:56;;;;;;;3.33;1.73;;;16.00;63.20;;;;;;5013733;28;20903;-73
2021/04/04 12:22:44;;;;;;;2.60;1.77;;;15.70;66.90;;;;;;5013064;28;20459;-72
2021/04/04 12:25:27;;;;;;;3.17;1.67;;;15.10;77.30;;;;;;5013786;28;20409;-73
2021/04/04 12:27:55;;;;;;;3.90;1.73;;;15.10;67.60;;;;;;5013526;28;20474;-72
2021/04/04 12:30:41;;;;;;;3.38;1.52;;;15.70;68.10;;;;;;5013584;28;20389;-73
2021/04/04 12:33:14;;;;;;;2.80;1.50;;;15.80;69.60;;;;;;4995752;28;20408;-72
2021/04/04 12:35:42;;;;;;;2.95;1.80;;;15.50;78.10;;;;;;5012898;28;20401;-73
2021/04/04 12:38:19;;;;;;;3.15;1.52;;;15.40;76.40;;;;;;5013128;28;20405;-72
2021/04/04 12:40:45;;;;;;;3.00;1.70;;;15.60;65.80;;;;;;5012839;28;20384;-72
2021/04/04 12:43:11;;;;;;;2.67;1.60;;;15.50;66.00;;;;;;5013254;28;20381;-73
2021/04/04 12:45:38;;;;;;;2.50;1.70;;;15.80;74.00;;;;;;5012671;28;20450;-72
2021/04/04 12:48:21;;;;;;;2.60;1.57;;;16.10;62.00;;;;;;5011077;28;20499;-73
2021/04/04 12:50:48;;;;;;;3.63;1.80;;;16.10;68.20;;;;;;5012944;28;20397;-73
2021/04/04 12:53:30;;;;;;;3.05;1.70;;;16.10;66.10;;;;;;5011904;28;20800;-74
2021/04/04 12:55:57;;;;;;;2.92;1.40;;;15.70;64.80;;;;;;5013083;28;20443;-73
2021/04/04 12:58:31;;;;;;;3.03;1.50;;;15.60;66.00;;;;;;5012618;28;20476;-76
2021/04/04 13:00:57;;;;;;;4.67;2.17;;;16.30;70.40;;;;;;5012905;28;20420;-73
2021/04/04 13:03:30;;;;;;;2.80;2.00;;;16.60;70.80;;;;;;5012915;28;20387;-73
2021/04/04 13:05:55;;;;;;;2.30;1.60;;;15.90;66.90;;;;;;5012993;28;20718;-73
2021/04/04 13:08:23;;;;;;;5.03;2.20;;;15.60;65.70;;;;;;5032485;28;20402;-72
2021/04/04 13:10:51;;;;;;;2.50;1.60;;;16.30;76.40;;;;;;5032500;28;20417;-72
2021/04/04 13:13:20;;;;;;;2.05;1.42;;;16.10;76.60;;;;;;5031037;28;20387;-72
2021/04/04 13:15:46;;;;;;;3.88;1.60;;;;;;;;;;5012062;28;20384;-72
2021/04/04 13:18:57;;;;;;;3.75;2.00;;;16.60;70.30;;;;;;5010979;28;20773;-72
2021/04/04 13:21:26;;;;;;;3.05;2.00;;;;;;;;;;5012653;28;20412;-72
2021/04/04 13:23:56;;;;;;;3.50;2.20;;;17.30;65.30;;;;;;5012487;28;20447;-72
2021/04/04 13:26:26;;;;;;;3.00;2.08;;;16.90;65.00;;;;;;5012479;28;20384;-73
2021/04/04 13:29:00;;;;;;;4.32;1.80;;;16.20;59.40;;;;;;5010956;28;20912;-72
2021/04/04 13:31:27;;;;;;;3.78;1.63;;;16.70;65.90;;;;;;4994174;28;20444;-73
2021/04/04 13:34:08;;;;;;;2.60;1.80;;;15.50;68.80;;;;;;5012234;28;20734;-73
2021/04/04 13:36:51;;;;;;;2.40;1.90;;;16.50;65.60;;;;;;5011724;28;20431;-74
2021/04/04 13:39:18;;;;;;;3.35;1.77;;;16.40;62.20;;;;;;5011080;28;20869;-74